sensor_id;sensor_type;location;lat;lon;timestamp;P1;durP1;ratioP1;P2;durP2;ratioP2
22040;SDS011;11184;52.444;13.578;2023-03-21T00:02:07;16.05;;;14.60;;
22040;SDS011;11184;52.444;13.578;2023-03-21T00:04:51;14.25;;;12.93;;
22040;SDS011;11184;52.444;13.578;2023-03-21T00:07:36;15.90;;;14.38;;
22040;SDS011;11184;52.444;13.578;2023-03-21T00:10:21;16.10;;;14.73;;
22040;SDS011;11184;52.444;13.578;2023-03-21T00:13:06;16.88;;;14.65;;
22040;SDS011;11184;52.444;13.578;2023-03-21T00:15:51;15.65;;;14.15;;
22040;SDS011;11184;52.444;13.578;2023-03-21T00:18:39;16.88;;;14.50;;
22040;SDS011;11184;52.444;13.578;2023-03-21T00:21:24;16.05;;;13.35;;
22040;SDS011;11184;52.444;13.578;2023-03-21T00:24:14;17.27;;;12.50;;
22040;SDS011;11184;52.444;13.578;2023-03-21T00:26:59;13.70;;;12.60;;
22040;SDS011;11184;52.444;13.578;2023-03-21T00:29:44;13.50;;;11.63;;
22040;SDS011;11184;52.444;13.578;2023-03-21T00:32:29;13.98;;;10.70;;
22040;SDS011;11184;52.444;13.578;2023-03-21T00:35:13;13.80;;;12.40;;
22040;SDS011;11184;52.444;13.578;2023-03-21T00:37:58;11.65;;;10.45;;
22040;SDS011;11184;52.444;13.578;2023-03-21T00:40:43;19.10;;;12.38;;
22040;SDS011;11184;52.444;13.578;2023-03-21T00:43:27;12.90;;;11.70;;
22040;SDS011;11184;52.444;13.578;2023-03-21T00:46:13;13.10;;;12.00;;
22040;SDS011;11184;52.444;13.578;2023-03-21T00:48:57;13.55;;;12.20;;
22040;SDS011;11184;52.444;13.578;2023-03-21T00:51:42;15.13;;;13.88;;
22040;SDS011;11184;52.444;13.578;2023-03-21T00:54:27;15.88;;;12.55;;
22040;SDS011;11184;52.444;13.578;2023-03-21T00:57:12;17.52;;;15.13;;
22040;SDS011;11184;52.444;13.578;2023-03-21T00:59:56;16.10;;;14.73;;
22040;SDS011;11184;52.444;13.578;2023-03-21T01:02:41;15.57;;;14.30;;
22040;SDS011;11184;52.444;13.578;2023-03-21T01:05:40;16.73;;;15.38;;
22040;SDS011;11184;52.444;13.578;2023-03-21T01:08:46;21.08;;;16.60;;
22040;SDS011;11184;52.444;13.578;2023-03-21T01:11:32;16.10;;;14.43;;
22040;SDS011;11184;52.444;13.578;2023-03-21T01:14:18;15.60;;;14.30;;
22040;SDS011;11184;52.444;13.578;2023-03-21T01:17:04;15.55;;;14.15;;
22040;SDS011;11184;52.444;13.578;2023-03-21T01:19:48;18.00;;;16.05;;
22040;SDS011;11184;52.444;13.578;2023-03-21T01:22:33;17.90;;;16.15;;
22040;SDS011;11184;52.444;13.578;2023-03-21T01:25:18;18.52;;;16.73;;
22040;SDS011;11184;52.444;13.578;2023-03-21T01:28:03;18.42;;;16.27;;
22040;SDS011;11184;52.444;13.578;2023-03-21T01:30:48;16.90;;;15.35;;
22040;SDS011;11184;52.444;13.578;2023-03-21T01:33:33;20.30;;;18.58;;
22040;SDS011;11184;52.444;13.578;2023-03-21T01:36:19;17.92;;;16.13;;
22040;SDS011;11184;52.444;13.578;2023-03-21T01:39:07;19.92;;;17.92;;
22040;SDS011;11184;52.444;13.578;2023-03-21T01:41:52;19.67;;;17.80;;
22040;SDS011;11184;52.444;13.578;2023-03-21T01:44:53;23.77;;;19.00;;
22040;SDS011;11184;52.444;13.578;2023-03-21T01:47:39;19.95;;;18.00;;
22040;SDS011;11184;52.444;13.578;2023-03-21T01:50:23;19.90;;;17.92;;
22040;SDS011;11184;52.444;13.578;2023-03-21T01:53:09;19.75;;;17.83;;
22040;SDS011;11184;52.444;13.578;2023-03-21T01:55:58;20.38;;;18.23;;
22040;SDS011;11184;52.444;13.578;2023-03-21T01:58:44;22.77;;;18.73;;
22040;SDS011;11184;52.444;13.578;2023-03-21T02:01:30;19.08;;;16.80;;
22040;SDS011;11184;52.444;13.578;2023-03-21T02:04:17;19.25;;;17.27;;
22040;SDS011;11184;52.444;13.578;2023-03-21T02:07:14;20.50;;;17.77;;
22040;SDS011;11184;52.444;13.578;2023-03-21T02:10:03;21.65;;;18.20;;
22040;SDS011;11184;52.444;13.578;2023-03-21T02:12:50;19.35;;;17.63;;
22040;SDS011;11184;52.444;13.578;2023-03-21T02:15:38;19.85;;;17.63;;
22040;SDS011;11184;52.444;13.578;2023-03-21T02:21:21;22.15;;;19.92;;
22040;SDS011;11184;52.444;13.578;2023-03-21T02:24:26;25.90;;;22.88;;
22040;SDS011;11184;52.444;13.578;2023-03-21T02:27:20;26.00;;;21.70;;
22040;SDS011;11184;52.444;13.578;2023-03-21T02:30:18;26.25;;;23.58;;
22040;SDS011;11184;52.444;13.578;2023-03-21T02:33:18;27.50;;;24.65;;
22040;SDS011;11184;52.444;13.578;2023-03-21T02:44:49;35.38;;;25.90;;
22040;SDS011;11184;52.444;13.578;2023-03-21T02:47:40;37.42;;;27.42;;
22040;SDS011;11184;52.444;13.578;2023-03-21T02:50:27;28.95;;;25.95;;
22040;SDS011;11184;52.444;13.578;2023-03-21T02:53:15;31.80;;;28.40;;
22040;SDS011;11184;52.444;13.578;2023-03-21T02:56:01;28.20;;;25.30;;
22040;SDS011;11184;52.444;13.578;2023-03-21T02:58:46;32.58;;;29.27;;
22040;SDS011;11184;52.444;13.578;2023-03-21T03:01:31;33.40;;;29.05;;
22040;SDS011;11184;52.444;13.578;2023-03-21T03:04:17;33.63;;;30.08;;
22040;SDS011;11184;52.444;13.578;2023-03-21T03:07:10;38.60;;;30.50;;
22040;SDS011;11184;52.444;13.578;2023-03-21T03:10:10;36.95;;;31.27;;
22040;SDS011;11184;52.444;13.578;2023-03-21T03:13:06;35.50;;;29.65;;
22040;SDS011;11184;52.444;13.578;2023-03-21T03:16:12;35.65;;;30.63;;
22040;SDS011;11184;52.444;13.578;2023-03-21T03:19:03;37.63;;;31.25;;
22040;SDS011;11184;52.444;13.578;2023-03-21T03:21:57;41.30;;;30.77;;
22040;SDS011;11184;52.444;13.578;2023-03-21T03:24:51;41.38;;;31.67;;
22040;SDS011;11184;52.444;13.578;2023-03-21T03:27:40;36.67;;;32.17;;
22040;SDS011;11184;52.444;13.578;2023-03-21T03:30:26;36.33;;;31.33;;
22040;SDS011;11184;52.444;13.578;2023-03-21T03:33:11;39.72;;;31.25;;
22040;SDS011;11184;52.444;13.578;2023-03-21T03:35:59;42.35;;;33.38;;
22040;SDS011;11184;52.444;13.578;2023-03-21T03:38:45;36.42;;;31.02;;
22040;SDS011;11184;52.444;13.578;2023-03-21T03:41:30;40.97;;;31.77;;
22040;SDS011;11184;52.444;13.578;2023-03-21T03:44:19;42.47;;;32.95;;
22040;SDS011;11184;52.444;13.578;2023-03-21T03:47:09;38.20;;;30.65;;
22040;SDS011;11184;52.444;13.578;2023-03-21T03:50:40;39.10;;;31.80;;
22040;SDS011;11184;52.444;13.578;2023-03-21T03:53:06;41.20;;;32.15;;
22040;SDS011;11184;52.444;13.578;2023-03-21T03:55:53;38.97;;;31.48;;
22040;SDS011;11184;52.444;13.578;2023-03-21T03:58:38;34.85;;;29.58;;
22040;SDS011;11184;52.444;13.578;2023-03-21T04:01:24;33.63;;;29.92;;
22040;SDS011;11184;52.444;13.578;2023-03-21T04:04:09;38.17;;;30.45;;
22040;SDS011;11184;52.444;13.578;2023-03-21T04:06:54;40.88;;;32.13;;
22040;SDS011;11184;52.444;13.578;2023-03-21T04:09:39;39.83;;;31.08;;
22040;SDS011;11184;52.444;13.578;2023-03-21T04:12:25;38.00;;;30.77;;
22040;SDS011;11184;52.444;13.578;2023-03-21T04:15:09;40.95;;;32.30;;
22040;SDS011;11184;52.444;13.578;2023-03-21T04:17:54;43.13;;;32.13;;
22040;SDS011;11184;52.444;13.578;2023-03-21T04:20:39;38.25;;;32.65;;
22040;SDS011;11184;52.444;13.578;2023-03-21T04:23:25;39.22;;;32.45;;
22040;SDS011;11184;52.444;13.578;2023-03-21T04:26:11;38.13;;;31.73;;
22040;SDS011;11184;52.444;13.578;2023-03-21T04:28:56;41.80;;;31.20;;
22040;SDS011;11184;52.444;13.578;2023-03-21T04:31:42;39.58;;;30.67;;
22040;SDS011;11184;52.444;13.578;2023-03-21T04:34:27;39.10;;;32.17;;
22040;SDS011;11184;52.444;13.578;2023-03-21T04:37:11;36.88;;;31.38;;
22040;SDS011;11184;52.444;13.578;2023-03-21T04:39:58;36.53;;;31.13;;
22040;SDS011;11184;52.444;13.578;2023-03-21T04:42:43;39.60;;;31.15;;
22040;SDS011;11184;52.444;13.578;2023-03-21T04:45:28;39.80;;;31.10;;
22040;SDS011;11184;52.444;13.578;2023-03-21T04:48:13;40.72;;;32.67;;
22040;SDS011;11184;52.444;13.578;2023-03-21T04:51:00;40.42;;;31.02;;
22040;SDS011;11184;52.444;13.578;2023-03-21T04:53:44;35.75;;;29.60;;
22040;SDS011;11184;52.444;13.578;2023-03-21T04:56:32;39.22;;;31.55;;
22040;SDS011;11184;52.444;13.578;2023-03-21T04:59:18;36.10;;;30.35;;
22040;SDS011;11184;52.444;13.578;2023-03-21T05:02:04;40.42;;;32.60;;
22040;SDS011;11184;52.444;13.578;2023-03-21T05:04:48;40.42;;;29.67;;
22040;SDS011;11184;52.444;13.578;2023-03-21T05:07:33;43.55;;;31.05;;
22040;SDS011;11184;52.444;13.578;2023-03-21T05:10:17;37.63;;;29.95;;
22040;SDS011;11184;52.444;13.578;2023-03-21T05:13:02;41.88;;;31.48;;
22040;SDS011;11184;52.444;13.578;2023-03-21T05:15:47;40.78;;;30.27;;
22040;SDS011;11184;52.444;13.578;2023-03-21T05:18:31;43.47;;;30.80;;
22040;SDS011;11184;52.444;13.578;2023-03-21T05:21:17;40.90;;;30.02;;
22040;SDS011;11184;52.444;13.578;2023-03-21T05:24:02;46.03;;;30.58;;
22040;SDS011;11184;52.444;13.578;2023-03-21T05:26:47;43.00;;;33.58;;
22040;SDS011;11184;52.444;13.578;2023-03-21T05:29:38;50.22;;;30.77;;
22040;SDS011;11184;52.444;13.578;2023-03-21T05:32:23;35.17;;;29.73;;
22040;SDS011;11184;52.444;13.578;2023-03-21T05:35:08;42.00;;;32.85;;
22040;SDS011;11184;52.444;13.578;2023-03-21T05:37:52;40.90;;;32.42;;
22040;SDS011;11184;52.444;13.578;2023-03-21T05:40:37;46.83;;;32.20;;
22040;SDS011;11184;52.444;13.578;2023-03-21T05:43:21;42.17;;;32.17;;
22040;SDS011;11184;52.444;13.578;2023-03-21T05:46:06;37.58;;;29.88;;
22040;SDS011;11184;52.444;13.578;2023-03-21T05:48:51;44.42;;;30.35;;
22040;SDS011;11184;52.444;13.578;2023-03-21T05:51:36;40.15;;;30.67;;
22040;SDS011;11184;52.444;13.578;2023-03-21T05:54:20;38.65;;;28.90;;
22040;SDS011;11184;52.444;13.578;2023-03-21T05:57:05;39.00;;;29.88;;
22040;SDS011;11184;52.444;13.578;2023-03-21T05:59:50;39.55;;;29.67;;
22040;SDS011;11184;52.444;13.578;2023-03-21T06:02:35;39.40;;;31.00;;
22040;SDS011;11184;52.444;13.578;2023-03-21T06:05:20;36.45;;;28.77;;
22040;SDS011;11184;52.444;13.578;2023-03-21T06:08:05;39.55;;;28.65;;
22040;SDS011;11184;52.444;13.578;2023-03-21T06:10:49;40.83;;;29.73;;
22040;SDS011;11184;52.444;13.578;2023-03-21T06:13:35;35.40;;;27.30;;
22040;SDS011;11184;52.444;13.578;2023-03-21T06:16:19;33.60;;;28.60;;
22040;SDS011;11184;52.444;13.578;2023-03-21T06:19:04;41.25;;;28.38;;
22040;SDS011;11184;52.444;13.578;2023-03-21T06:21:48;33.92;;;29.15;;
22040;SDS011;11184;52.444;13.578;2023-03-21T06:24:34;39.17;;;28.98;;
22040;SDS011;11184;52.444;13.578;2023-03-21T06:27:18;38.38;;;29.27;;
22040;SDS011;11184;52.444;13.578;2023-03-21T06:30:03;34.85;;;28.27;;
22040;SDS011;11184;52.444;13.578;2023-03-21T06:32:48;39.00;;;29.23;;
22040;SDS011;11184;52.444;13.578;2023-03-21T06:35:32;37.08;;;28.27;;
22040;SDS011;11184;52.444;13.578;2023-03-21T06:38:17;35.33;;;27.75;;
22040;SDS011;11184;52.444;13.578;2023-03-21T06:41:05;40.05;;;28.63;;
22040;SDS011;11184;52.444;13.578;2023-03-21T06:43:50;38.33;;;29.30;;
22040;SDS011;11184;52.444;13.578;2023-03-21T06:46:34;36.67;;;27.15;;
22040;SDS011;11184;52.444;13.578;2023-03-21T06:49:19;39.65;;;28.38;;
22040;SDS011;11184;52.444;13.578;2023-03-21T06:52:04;38.42;;;30.35;;
22040;SDS011;11184;52.444;13.578;2023-03-21T06:54:48;45.92;;;31.95;;
22040;SDS011;11184;52.444;13.578;2023-03-21T06:57:34;37.67;;;28.25;;
22040;SDS011;11184;52.444;13.578;2023-03-21T07:00:19;38.80;;;28.30;;
22040;SDS011;11184;52.444;13.578;2023-03-21T07:03:04;43.38;;;28.83;;
22040;SDS011;11184;52.444;13.578;2023-03-21T07:05:49;44.60;;;29.67;;
22040;SDS011;11184;52.444;13.578;2023-03-21T07:08:34;36.80;;;29.27;;
22040;SDS011;11184;52.444;13.578;2023-03-21T07:11:20;37.67;;;27.83;;
22040;SDS011;11184;52.444;13.578;2023-03-21T07:14:05;43.65;;;30.17;;
22040;SDS011;11184;52.444;13.578;2023-03-21T07:16:49;39.30;;;26.90;;
22040;SDS011;11184;52.444;13.578;2023-03-21T07:19:34;34.47;;;27.10;;
22040;SDS011;11184;52.444;13.578;2023-03-21T07:22:19;37.15;;;27.90;;
22040;SDS011;11184;52.444;13.578;2023-03-21T07:25:03;38.65;;;29.27;;
22040;SDS011;11184;52.444;13.578;2023-03-21T07:27:49;38.75;;;28.60;;
22040;SDS011;11184;52.444;13.578;2023-03-21T07:30:34;35.78;;;27.05;;
22040;SDS011;11184;52.444;13.578;2023-03-21T07:33:19;44.70;;;30.48;;
22040;SDS011;11184;52.444;13.578;2023-03-21T07:36:08;35.58;;;27.63;;
22040;SDS011;11184;52.444;13.578;2023-03-21T07:38:54;35.13;;;28.73;;
22040;SDS011;11184;52.444;13.578;2023-03-21T07:41:38;49.33;;;31.70;;
22040;SDS011;11184;52.444;13.578;2023-03-21T07:44:23;44.00;;;33.20;;
22040;SDS011;11184;52.444;13.578;2023-03-21T07:47:08;42.90;;;33.17;;
22040;SDS011;11184;52.444;13.578;2023-03-21T07:49:53;42.55;;;30.17;;
22040;SDS011;11184;52.444;13.578;2023-03-21T07:52:38;44.30;;;30.40;;
22040;SDS011;11184;52.444;13.578;2023-03-21T07:55:22;38.22;;;30.80;;
22040;SDS011;11184;52.444;13.578;2023-03-21T07:58:07;44.15;;;31.80;;
22040;SDS011;11184;52.444;13.578;2023-03-21T08:00:52;37.88;;;28.73;;
22040;SDS011;11184;52.444;13.578;2023-03-21T08:03:38;50.92;;;38.80;;
22040;SDS011;11184;52.444;13.578;2023-03-21T08:06:22;41.30;;;29.48;;
22040;SDS011;11184;52.444;13.578;2023-03-21T08:09:10;46.80;;;32.17;;
22040;SDS011;11184;52.444;13.578;2023-03-21T08:11:55;42.05;;;32.53;;
22040;SDS011;11184;52.444;13.578;2023-03-21T08:14:39;44.53;;;31.35;;
22040;SDS011;11184;52.444;13.578;2023-03-21T08:17:24;37.20;;;30.38;;
22040;SDS011;11184;52.444;13.578;2023-03-21T08:20:10;41.92;;;31.98;;
22040;SDS011;11184;52.444;13.578;2023-03-21T08:22:55;42.22;;;32.58;;
22040;SDS011;11184;52.444;13.578;2023-03-21T08:25:39;41.67;;;31.17;;
22040;SDS011;11184;52.444;13.578;2023-03-21T08:28:24;41.67;;;31.38;;
22040;SDS011;11184;52.444;13.578;2023-03-21T08:31:10;39.33;;;31.45;;
22040;SDS011;11184;52.444;13.578;2023-03-21T08:33:55;38.80;;;28.95;;
22040;SDS011;11184;52.444;13.578;2023-03-21T08:36:39;41.03;;;29.63;;
22040;SDS011;11184;52.444;13.578;2023-03-21T08:39:24;34.10;;;28.25;;
22040;SDS011;11184;52.444;13.578;2023-03-21T08:42:09;39.85;;;29.15;;
22040;SDS011;11184;52.444;13.578;2023-03-21T08:44:54;36.55;;;27.85;;
22040;SDS011;11184;52.444;13.578;2023-03-21T08:47:39;38.55;;;30.20;;
22040;SDS011;11184;52.444;13.578;2023-03-21T08:50:24;35.80;;;26.77;;
22040;SDS011;11184;52.444;13.578;2023-03-21T08:53:10;36.20;;;29.00;;
22040;SDS011;11184;52.444;13.578;2023-03-21T08:55:55;36.15;;;28.67;;
22040;SDS011;11184;52.444;13.578;2023-03-21T08:58:39;38.00;;;28.73;;
22040;SDS011;11184;52.444;13.578;2023-03-21T09:01:24;40.47;;;28.63;;
22040;SDS011;11184;52.444;13.578;2023-03-21T09:04:09;37.38;;;29.45;;
22040;SDS011;11184;52.444;13.578;2023-03-21T09:06:54;39.25;;;29.50;;
22040;SDS011;11184;52.444;13.578;2023-03-21T09:09:39;38.47;;;29.73;;
22040;SDS011;11184;52.444;13.578;2023-03-21T09:12:24;36.80;;;26.73;;
22040;SDS011;11184;52.444;13.578;2023-03-21T09:15:09;37.30;;;28.75;;
22040;SDS011;11184;52.444;13.578;2023-03-21T09:17:54;33.38;;;27.70;;
22040;SDS011;11184;52.444;13.578;2023-03-21T09:20:42;34.90;;;27.50;;
22040;SDS011;11184;52.444;13.578;2023-03-21T09:23:27;31.58;;;27.08;;
22040;SDS011;11184;52.444;13.578;2023-03-21T09:26:12;32.65;;;26.10;;
22040;SDS011;11184;52.444;13.578;2023-03-21T09:28:56;36.65;;;27.52;;
22040;SDS011;11184;52.444;13.578;2023-03-21T09:31:41;32.30;;;25.55;;
22040;SDS011;11184;52.444;13.578;2023-03-21T09:34:26;36.88;;;26.60;;
22040;SDS011;11184;52.444;13.578;2023-03-21T09:37:11;27.60;;;24.15;;
22040;SDS011;11184;52.444;13.578;2023-03-21T09:39:56;30.80;;;25.10;;
22040;SDS011;11184;52.444;13.578;2023-03-21T09:42:45;28.52;;;25.05;;
22040;SDS011;11184;52.444;13.578;2023-03-21T09:45:41;30.13;;;24.92;;
22040;SDS011;11184;52.444;13.578;2023-03-21T09:48:36;29.52;;;24.77;;
22040;SDS011;11184;52.444;13.578;2023-03-21T09:51:28;28.30;;;24.27;;
22040;SDS011;11184;52.444;13.578;2023-03-21T09:54:22;29.67;;;24.67;;
22040;SDS011;11184;52.444;13.578;2023-03-21T09:57:11;27.02;;;23.73;;
22040;SDS011;11184;52.444;13.578;2023-03-21T09:59:59;30.02;;;25.15;;
22040;SDS011;11184;52.444;13.578;2023-03-21T10:02:51;30.90;;;24.27;;
22040;SDS011;11184;52.444;13.578;2023-03-21T10:05:37;25.92;;;22.80;;
22040;SDS011;11184;52.444;13.578;2023-03-21T10:08:23;32.17;;;24.20;;
22040;SDS011;11184;52.444;13.578;2023-03-21T10:11:14;30.23;;;24.77;;
22040;SDS011;11184;52.444;13.578;2023-03-21T10:14:02;31.77;;;22.70;;
22040;SDS011;11184;52.444;13.578;2023-03-21T10:16:51;28.23;;;22.25;;
22040;SDS011;11184;52.444;13.578;2023-03-21T10:19:35;32.38;;;24.00;;
22040;SDS011;11184;52.444;13.578;2023-03-21T10:22:20;36.25;;;27.35;;
22040;SDS011;11184;52.444;13.578;2023-03-21T10:25:05;35.35;;;25.13;;
22040;SDS011;11184;52.444;13.578;2023-03-21T10:27:50;39.67;;;25.80;;
22040;SDS011;11184;52.444;13.578;2023-03-21T10:30:39;32.58;;;24.00;;
22040;SDS011;11184;52.444;13.578;2023-03-21T10:33:26;31.08;;;23.50;;
22040;SDS011;11184;52.444;13.578;2023-03-21T10:36:24;28.85;;;22.25;;
22040;SDS011;11184;52.444;13.578;2023-03-21T10:39:14;34.15;;;23.77;;
22040;SDS011;11184;52.444;13.578;2023-03-21T10:42:02;28.83;;;21.88;;
22040;SDS011;11184;52.444;13.578;2023-03-21T10:44:48;27.25;;;21.85;;
22040;SDS011;11184;52.444;13.578;2023-03-21T10:47:33;38.83;;;22.45;;
22040;SDS011;11184;52.444;13.578;2023-03-21T10:50:18;30.08;;;22.10;;
22040;SDS011;11184;52.444;13.578;2023-03-21T10:53:05;25.33;;;22.45;;
22040;SDS011;11184;52.444;13.578;2023-03-21T10:56:00;29.60;;;20.67;;
22040;SDS011;11184;52.444;13.578;2023-03-21T10:58:46;25.23;;;20.75;;
22040;SDS011;11184;52.444;13.578;2023-03-21T11:01:42;23.73;;;20.17;;
22040;SDS011;11184;52.444;13.578;2023-03-21T11:04:29;23.77;;;20.70;;
22040;SDS011;11184;52.444;13.578;2023-03-21T11:07:14;23.80;;;19.65;;
22040;SDS011;11184;52.444;13.578;2023-03-21T11:10:12;28.45;;;20.83;;
22040;SDS011;11184;52.444;13.578;2023-03-21T11:12:59;20.00;;;18.00;;
22040;SDS011;11184;52.444;13.578;2023-03-21T11:15:52;28.23;;;19.50;;
22040;SDS011;11184;52.444;13.578;2023-03-21T11:18:39;20.65;;;17.30;;
22040;SDS011;11184;52.444;13.578;2023-03-21T11:21:25;21.48;;;16.60;;
22040;SDS011;11184;52.444;13.578;2023-03-21T11:24:15;21.50;;;19.25;;
22040;SDS011;11184;52.444;13.578;2023-03-21T11:27:03;20.17;;;17.88;;
22040;SDS011;11184;52.444;13.578;2023-03-21T11:29:49;22.83;;;19.08;;
22040;SDS011;11184;52.444;13.578;2023-03-21T11:32:35;19.73;;;17.60;;
22040;SDS011;11184;52.444;13.578;2023-03-21T11:35:22;21.05;;;18.50;;
22040;SDS011;11184;52.444;13.578;2023-03-21T11:38:22;31.42;;;24.58;;
22040;SDS011;11184;52.444;13.578;2023-03-21T11:41:08;28.73;;;21.58;;
22040;SDS011;11184;52.444;13.578;2023-03-21T11:44:05;22.45;;;18.38;;
22040;SDS011;11184;52.444;13.578;2023-03-21T11:46:50;22.27;;;17.98;;
22040;SDS011;11184;52.444;13.578;2023-03-21T11:49:34;22.48;;;19.55;;
22040;SDS011;11184;52.444;13.578;2023-03-21T11:52:22;22.40;;;18.70;;
22040;SDS011;11184;52.444;13.578;2023-03-21T11:55:12;20.55;;;17.73;;
22040;SDS011;11184;52.444;13.578;2023-03-21T11:58:02;22.42;;;18.88;;
22040;SDS011;11184;52.444;13.578;2023-03-21T12:06:42;29.70;;;21.02;;
22040;SDS011;11184;52.444;13.578;2023-03-21T12:09:37;35.33;;;22.92;;
22040;SDS011;11184;52.444;13.578;2023-03-21T12:12:37;31.23;;;21.00;;
22040;SDS011;11184;52.444;13.578;2023-03-21T12:15:27;26.88;;;20.85;;
22040;SDS011;11184;52.444;13.578;2023-03-21T12:18:34;29.23;;;20.63;;
22040;SDS011;11184;52.444;13.578;2023-03-21T12:35:42;30.15;;;22.05;;
22040;SDS011;11184;52.444;13.578;2023-03-21T12:41:33;28.27;;;19.40;;
22040;SDS011;11184;52.444;13.578;2023-03-21T12:44:21;25.00;;;19.67;;
22040;SDS011;11184;52.444;13.578;2023-03-21T12:47:17;21.23;;;19.00;;
22040;SDS011;11184;52.444;13.578;2023-03-21T12:50:14;22.13;;;17.55;;
22040;SDS011;11184;52.444;13.578;2023-03-21T12:53:06;20.85;;;18.67;;
22040;SDS011;11184;52.444;13.578;2023-03-21T12:55:52;19.58;;;16.73;;
22040;SDS011;11184;52.444;13.578;2023-03-21T12:58:49;23.05;;;17.90;;
22040;SDS011;11184;52.444;13.578;2023-03-21T13:01:35;27.40;;;21.73;;
22040;SDS011;11184;52.444;13.578;2023-03-21T13:07:25;18.00;;;16.10;;
22040;SDS011;11184;52.444;13.578;2023-03-21T13:10:13;17.55;;;15.18;;
22040;SDS011;11184;52.444;13.578;2023-03-21T13:13:06;18.17;;;16.15;;
22040;SDS011;11184;52.444;13.578;2023-03-21T13:15:54;18.77;;;17.00;;
22040;SDS011;11184;52.444;13.578;2023-03-21T13:24:46;17.23;;;15.02;;
22040;SDS011;11184;52.444;13.578;2023-03-21T13:27:32;18.17;;;16.27;;
22040;SDS011;11184;52.444;13.578;2023-03-21T13:35:53;18.45;;;14.88;;
22040;SDS011;11184;52.444;13.578;2023-03-21T13:38:39;16.60;;;14.70;;
22040;SDS011;11184;52.444;13.578;2023-03-21T13:41:27;15.70;;;14.10;;
22040;SDS011;11184;52.444;13.578;2023-03-21T13:55:57;16.73;;;15.20;;
22040;SDS011;11184;52.444;13.578;2023-03-21T14:01:28;16.42;;;14.77;;
22040;SDS011;11184;52.444;13.578;2023-03-21T14:04:18;15.52;;;14.00;;
22040;SDS011;11184;52.444;13.578;2023-03-21T14:07:05;17.52;;;13.80;;
22040;SDS011;11184;52.444;13.578;2023-03-21T14:09:56;18.70;;;12.55;;
22040;SDS011;11184;52.444;13.578;2023-03-21T14:12:41;14.30;;;12.90;;
22040;SDS011;11184;52.444;13.578;2023-03-21T14:15:39;15.82;;;13.15;;
22040;SDS011;11184;52.444;13.578;2023-03-21T14:18:25;13.18;;;11.77;;
22040;SDS011;11184;52.444;13.578;2023-03-21T14:21:15;12.93;;;11.68;;
22040;SDS011;11184;52.444;13.578;2023-03-21T14:24:21;16.35;;;11.95;;
22040;SDS011;11184;52.444;13.578;2023-03-21T14:27:05;12.48;;;11.23;;
22040;SDS011;11184;52.444;13.578;2023-03-21T14:29:49;11.02;;;10.13;;
22040;SDS011;11184;52.444;13.578;2023-03-21T14:32:36;12.35;;;11.13;;
22040;SDS011;11184;52.444;13.578;2023-03-21T14:35:20;12.38;;;11.30;;
22040;SDS011;11184;52.444;13.578;2023-03-21T14:38:06;13.98;;;9.85;;
22040;SDS011;11184;52.444;13.578;2023-03-21T14:40:53;13.95;;;9.10;;
22040;SDS011;11184;52.444;13.578;2023-03-21T14:43:39;10.02;;;8.93;;
22040;SDS011;11184;52.444;13.578;2023-03-21T14:46:24;10.70;;;8.65;;
22040;SDS011;11184;52.444;13.578;2023-03-21T14:49:10;10.07;;;9.13;;
22040;SDS011;11184;52.444;13.578;2023-03-21T14:51:58;11.40;;;9.80;;
22040;SDS011;11184;52.444;13.578;2023-03-21T14:54:44;9.82;;;8.93;;
22040;SDS011;11184;52.444;13.578;2023-03-21T14:57:30;13.43;;;7.90;;
22040;SDS011;11184;52.444;13.578;2023-03-21T15:00:22;8.63;;;7.85;;
22040;SDS011;11184;52.444;13.578;2023-03-21T15:03:11;11.75;;;7.32;;
22040;SDS011;11184;52.444;13.578;2023-03-21T15:06:04;9.50;;;8.43;;
22040;SDS011;11184;52.444;13.578;2023-03-21T15:08:59;9.18;;;7.70;;
22040;SDS011;11184;52.444;13.578;2023-03-21T15:11:47;11.50;;;6.30;;
22040;SDS011;11184;52.444;13.578;2023-03-21T15:14:36;6.93;;;6.32;;
22040;SDS011;11184;52.444;13.578;2023-03-21T15:17:21;9.32;;;8.40;;
22040;SDS011;11184;52.444;13.578;2023-03-21T15:20:07;8.57;;;7.72;;
22040;SDS011;11184;52.444;13.578;2023-03-21T15:22:54;8.48;;;7.68;;
22040;SDS011;11184;52.444;13.578;2023-03-21T15:25:40;7.68;;;7.07;;
22040;SDS011;11184;52.444;13.578;2023-03-21T15:28:25;11.05;;;7.95;;
22040;SDS011;11184;52.444;13.578;2023-03-21T15:31:20;7.97;;;7.35;;
22040;SDS011;11184;52.444;13.578;2023-03-21T15:34:05;12.20;;;9.85;;
22040;SDS011;11184;52.444;13.578;2023-03-21T15:36:53;10.75;;;9.65;;
22040;SDS011;11184;52.444;13.578;2023-03-21T15:39:38;10.90;;;9.63;;
22040;SDS011;11184;52.444;13.578;2023-03-21T15:45:25;10.75;;;9.65;;
22040;SDS011;11184;52.444;13.578;2023-03-21T15:48:12;10.02;;;9.02;;
22040;SDS011;11184;52.444;13.578;2023-03-21T15:50:59;13.25;;;9.80;;
22040;SDS011;11184;52.444;13.578;2023-03-21T15:53:45;11.13;;;10.10;;
22040;SDS011;11184;52.444;13.578;2023-03-21T15:56:33;11.68;;;9.77;;
22040;SDS011;11184;52.444;13.578;2023-03-21T15:59:19;14.13;;;12.23;;
22040;SDS011;11184;52.444;13.578;2023-03-21T16:02:20;12.55;;;11.38;;
22040;SDS011;11184;52.444;13.578;2023-03-21T16:05:20;11.88;;;10.98;;
22040;SDS011;11184;52.444;13.578;2023-03-21T16:08:19;15.60;;;13.23;;
22040;SDS011;11184;52.444;13.578;2023-03-21T16:11:05;14.88;;;13.23;;
22040;SDS011;11184;52.444;13.578;2023-03-21T16:13:51;14.55;;;13.38;;
22040;SDS011;11184;52.444;13.578;2023-03-21T16:16:36;13.55;;;12.43;;
22040;SDS011;11184;52.444;13.578;2023-03-21T16:19:21;16.85;;;15.32;;
22040;SDS011;11184;52.444;13.578;2023-03-21T16:22:08;14.57;;;13.15;;
22040;SDS011;11184;52.444;13.578;2023-03-21T16:24:52;16.08;;;14.50;;
22040;SDS011;11184;52.444;13.578;2023-03-21T16:27:37;17.10;;;15.32;;
22040;SDS011;11184;52.444;13.578;2023-03-21T16:30:22;15.35;;;14.05;;
22040;SDS011;11184;52.444;13.578;2023-03-21T16:33:09;16.05;;;14.50;;
22040;SDS011;11184;52.444;13.578;2023-03-21T16:35:54;19.20;;;14.77;;
22040;SDS011;11184;52.444;13.578;2023-03-21T16:38:40;17.35;;;15.63;;
22040;SDS011;11184;52.444;13.578;2023-03-21T16:41:25;16.58;;;15.23;;
22040;SDS011;11184;52.444;13.578;2023-03-21T16:44:10;17.02;;;15.27;;
22040;SDS011;11184;52.444;13.578;2023-03-21T16:46:55;17.48;;;16.08;;
22040;SDS011;11184;52.444;13.578;2023-03-21T16:49:40;16.58;;;15.15;;
22040;SDS011;11184;52.444;13.578;2023-03-21T16:52:24;19.30;;;17.38;;
22040;SDS011;11184;52.444;13.578;2023-03-21T16:55:10;19.02;;;17.02;;
22040;SDS011;11184;52.444;13.578;2023-03-21T16:57:54;19.27;;;17.50;;
22040;SDS011;11184;52.444;13.578;2023-03-21T17:00:40;18.10;;;16.50;;
22040;SDS011;11184;52.444;13.578;2023-03-21T17:03:26;18.92;;;17.45;;
22040;SDS011;11184;52.444;13.578;2023-03-21T17:06:14;18.40;;;16.80;;
22040;SDS011;11184;52.444;13.578;2023-03-21T17:09:00;19.00;;;17.25;;
22040;SDS011;11184;52.444;13.578;2023-03-21T17:11:45;19.98;;;18.30;;
22040;SDS011;11184;52.444;13.578;2023-03-21T17:14:30;20.02;;;18.30;;